createdAt,value
2022-08-22T00:01:31.460Z,6.43
2022-08-22T00:02:58.482Z,5.43
2022-08-22T00:03:03.717Z,5.53
2022-08-22T00:03:10.555Z,6.18
2022-08-22T00:04:14.697Z,6.20
2022-08-22T00:07:08.491Z,6.20
2022-08-22T00:09:46.136Z,6.10
2022-08-22T00:12:22.586Z,7.55
2022-08-22T00:14:53.688Z,6.47
2022-08-22T00:17:26.750Z,6.45
2022-08-22T00:20:20.823Z,7.53
2022-08-22T00:22:57.989Z,7.53
2022-08-22T00:26:02.995Z,6.65
2022-08-22T00:28:33.852Z,7.20
2022-08-22T00:31:22.645Z,7.45
2022-08-22T00:34:01.338Z,7.63
2022-08-22T00:36:37.749Z,7.85
2022-08-22T00:39:17.200Z,6.85
2022-08-22T00:41:56.602Z,6.45
2022-08-22T00:44:37.933Z,7.15
2022-08-22T00:47:19.885Z,7.50
2022-08-22T00:50:24.639Z,6.80
2022-08-22T00:53:04.687Z,7.00
2022-08-22T00:55:50.136Z,7.20
2022-08-22T00:58:41.312Z,7.15
2022-08-22T01:01:12.632Z,6.93
2022-08-22T01:04:09.703Z,7.78
2022-08-22T01:07:19.523Z,8.30
2022-08-22T01:10:24.036Z,8.45
2022-08-22T01:13:15.234Z,8.35
2022-08-22T01:15:42.955Z,8.73
2022-08-22T01:18:18.964Z,7.90
2022-08-22T01:20:54.866Z,8.55
2022-08-22T01:23:30.691Z,7.80
2022-08-22T01:26:15.701Z,7.57
2022-08-22T01:28:54.679Z,7.80
2022-08-22T01:31:37.455Z,7.43
2022-08-22T01:34:27.605Z,7.40
2022-08-22T01:37:07.735Z,7.32
2022-08-22T01:39:40.735Z,7.60
2022-08-22T01:42:40.013Z,7.10
2022-08-22T01:45:27.971Z,7.53
2022-08-22T01:48:19.320Z,7.55
2022-08-22T01:50:53.210Z,7.93
2022-08-22T01:53:39.516Z,7.57
2022-08-22T01:56:12.343Z,7.25
2022-08-22T01:58:55.503Z,7.55
2022-08-22T02:01:28.655Z,7.05
2022-08-22T02:04:14.777Z,7.30
2022-08-22T02:07:05.558Z,5.55
2022-08-22T02:09:57.065Z,5.90
2022-08-22T02:12:37.748Z,5.60
2022-08-22T02:15:17.239Z,6.25
2022-08-22T02:17:51.057Z,5.95
2022-08-22T02:20:28.925Z,6.03
2022-08-22T02:23:09.435Z,5.93
2022-08-22T02:26:16.968Z,6.15
2022-08-22T02:28:58.330Z,7.20
2022-08-22T02:31:42.875Z,4.65
2022-08-22T02:34:42.746Z,5.05
2022-08-22T02:37:22.017Z,4.00
2022-08-22T02:40:08.222Z,6.78
2022-08-22T02:42:59.800Z,5.90
2022-08-22T02:45:52.879Z,5.95
2022-08-22T02:48:19.741Z,4.75
2022-08-22T02:51:01.777Z,4.13
2022-08-22T02:53:39.023Z,3.53
2022-08-22T02:56:17.956Z,4.22
2022-08-22T02:59:12.835Z,4.03
2022-08-22T03:01:46.002Z,4.78
2022-08-22T03:04:23.314Z,6.78
2022-08-22T03:07:12.102Z,5.43
2022-08-22T03:09:58.313Z,4.88
2022-08-22T03:12:33.082Z,4.63
2022-08-22T03:15:29.479Z,3.30
2022-08-22T03:18:07.118Z,4.43
2022-08-22T03:20:45.906Z,4.68
2022-08-22T03:23:21.756Z,4.18
2022-08-22T03:26:24.222Z,4.35
2022-08-22T03:29:04.674Z,4.10
2022-08-22T03:31:32.945Z,4.25
2022-08-22T03:34:24.078Z,4.40
2022-08-22T03:37:15.023Z,3.85
2022-08-22T03:39:56.828Z,3.38
2022-08-22T03:42:49.113Z,3.55
2022-08-22T03:45:52.962Z,3.30
2022-08-22T03:48:52.516Z,3.67
2022-08-22T03:51:46.326Z,3.13
2022-08-22T03:54:34.959Z,3.53
2022-08-22T03:57:06.531Z,3.53
2022-08-22T03:59:42.908Z,4.20
2022-08-22T04:02:42.275Z,4.65
2022-08-22T04:05:35.769Z,4.00
2022-08-22T04:08:26.466Z,3.72
2022-08-22T04:11:08.202Z,4.45
2022-08-22T04:13:35.069Z,4.75
2022-08-22T04:16:12.206Z,4.45
2022-08-22T04:18:52.744Z,3.80
2022-08-22T04:21:35.554Z,4.82
2022-08-22T04:24:28.990Z,4.35
2022-08-22T04:27:10.423Z,4.07
2022-08-22T04:29:45.937Z,4.75
2022-08-22T04:32:25.374Z,5.20
2022-08-22T04:35:07.041Z,3.90
2022-08-22T04:37:54.345Z,4.88
2022-08-22T04:40:43.642Z,4.35
2022-08-22T04:43:37.186Z,3.88
2022-08-22T04:46:11.427Z,4.90
2022-08-22T04:48:43.226Z,4.47
2022-08-22T04:51:13.146Z,5.03
2022-08-22T04:53:48.982Z,4.72
2022-08-22T04:56:33.007Z,5.03
2022-08-22T04:59:04.837Z,5.32
2022-08-22T05:01:56.458Z,5.40
2022-08-22T05:04:32.199Z,5.65
2022-08-22T05:07:07.939Z,6.37
2022-08-22T05:09:38.935Z,5.68
2022-08-22T05:12:12.025Z,5.47
2022-08-22T05:14:47.265Z,6.38
2022-08-22T05:17:21.326Z,7.05
2022-08-22T05:19:53.680Z,7.32
2022-08-22T05:22:36.680Z,6.07
2022-08-22T05:25:15.179Z,6.30
2022-08-22T05:27:49.370Z,7.00
2022-08-22T05:30:28.535Z,7.50
2022-08-22T05:33:07.487Z,7.45
2022-08-22T05:35:38.694Z,7.88
2022-08-22T05:38:10.348Z,8.57
2022-08-22T05:40:38.058Z,8.27
2022-08-22T05:43:09.346Z,8.32
2022-08-22T05:45:37.558Z,7.40
2022-08-22T05:48:20.604Z,8.48
2022-08-22T05:50:58.613Z,9.05
2022-08-22T05:53:58.485Z,9.52
2022-08-22T05:56:28.407Z,9.63
2022-08-22T05:59:01.992Z,10.93
2022-08-22T06:01:38.444Z,11.02
2022-08-22T06:04:26.382Z,12.30
2022-08-22T06:07:00.864Z,10.98
2022-08-22T06:09:34.652Z,10.07
2022-08-22T06:12:21.775Z,11.10
2022-08-22T06:14:58.159Z,9.90
2022-08-22T06:17:34.907Z,8.50
2022-08-22T06:20:05.620Z,8.75
2022-08-22T06:22:37.329Z,7.90
2022-08-22T06:25:17.108Z,8.05
2022-08-22T06:27:48.263Z,6.95
2022-08-22T06:30:17.094Z,7.53
2022-08-22T06:33:00.229Z,6.88
2022-08-22T06:35:56.338Z,6.78
2022-08-22T06:38:28.769Z,7.30
2022-08-22T06:40:58.160Z,7.45
2022-08-22T06:43:25.669Z,6.45
2022-08-22T06:45:53.393Z,7.43
2022-08-22T06:48:24.197Z,6.80
2022-08-22T06:50:56.954Z,7.07
2022-08-22T06:53:34.905Z,7.20
2022-08-22T06:56:05.966Z,6.75
2022-08-22T06:58:39.126Z,6.53
2022-08-22T07:01:15.090Z,7.47
2022-08-22T07:03:46.842Z,7.32
2022-08-22T07:06:17.495Z,6.82
2022-08-22T07:08:45.173Z,6.78
2022-08-22T07:11:30.761Z,6.88
2022-08-22T07:14:04.694Z,8.40
2022-08-22T07:16:45.302Z,7.25
2022-08-22T07:19:39.073Z,6.57
2022-08-22T07:22:15.705Z,6.18
2022-08-22T07:24:51.726Z,6.72
2022-08-22T07:27:48.960Z,6.55
2022-08-22T07:30:27.388Z,5.47
2022-08-22T07:33:25.695Z,6.03
2022-08-22T07:35:59.471Z,5.97
2022-08-22T07:38:44.126Z,5.57
2022-08-22T07:41:14.251Z,5.25
2022-08-22T07:43:55.166Z,5.43
2022-08-22T07:46:41.416Z,4.80
2022-08-22T07:49:23.275Z,4.93
2022-08-22T07:51:54.468Z,5.30
2022-08-22T07:54:44.527Z,5.07
2022-08-22T07:57:22.536Z,3.92
2022-08-22T07:59:54.392Z,3.75
2022-08-22T08:02:23.725Z,3.90
2022-08-22T08:04:55.133Z,4.60
2022-08-22T08:07:26.047Z,4.82
2022-08-22T08:09:59.681Z,3.88
2022-08-22T08:12:34.150Z,4.72
2022-08-22T08:15:04.739Z,4.40
2022-08-22T08:17:34.708Z,4.28
2022-08-22T08:20:13.164Z,4.30
2022-08-22T08:22:43.390Z,4.20
2022-08-22T08:25:14.118Z,3.88
2022-08-22T08:28:00.616Z,4.47
2022-08-22T08:30:43.329Z,4.00
2022-08-22T08:33:25.296Z,4.10
2022-08-22T08:36:24.991Z,4.82
2022-08-22T08:39:12.538Z,4.80
2022-08-22T08:42:00.754Z,3.97
2022-08-22T08:44:35.854Z,4.10
2022-08-22T08:47:15.108Z,5.05
2022-08-22T08:50:07.025Z,4.13
2022-08-22T08:52:54.760Z,4.13
2022-08-22T08:55:47.811Z,4.10
2022-08-22T08:58:38.017Z,4.50
2022-08-22T09:01:06.909Z,3.83
2022-08-22T09:03:44.026Z,4.05
2022-08-22T09:06:35.879Z,3.42
2022-08-22T09:09:18.544Z,3.20
2022-08-22T09:11:57.649Z,3.08
2022-08-22T09:14:44.862Z,3.10
2022-08-22T09:17:30.159Z,3.17
2022-08-22T09:20:22.041Z,3.33
2022-08-22T09:23:20.990Z,4.00
2022-08-22T09:26:15.873Z,3.90
2022-08-22T09:28:59.488Z,3.20
2022-08-22T09:31:47.391Z,3.45
2022-08-22T09:34:34.619Z,4.90
2022-08-22T09:37:14.433Z,5.00
2022-08-22T09:43:21.243Z,3.60
2022-08-22T10:17:21.762Z,4.72
2022-08-22T10:19:58.909Z,3.65
2022-08-22T10:22:41.515Z,4.18
2022-08-22T10:25:28.500Z,3.25
2022-08-22T10:28:17.267Z,3.08
2022-08-22T10:31:12.260Z,3.38
2022-08-22T10:34:15.098Z,3.67
2022-08-22T10:36:59.226Z,3.90
2022-08-22T10:39:35.131Z,3.40
2022-08-22T10:42:24.720Z,3.08
2022-08-22T10:45:23.675Z,3.63
2022-08-22T10:48:10.690Z,3.53
2022-08-22T10:50:47.918Z,3.78
2022-08-22T10:53:30.671Z,3.92
2022-08-22T10:56:09.237Z,3.22
2022-08-22T10:59:01.344Z,2.70
2022-08-22T11:01:42.066Z,3.08
2022-08-22T11:04:51.991Z,3.53
2022-08-22T11:07:39.498Z,3.47
2022-08-22T11:10:41.963Z,3.40
2022-08-22T11:13:33.763Z,3.03
2022-08-22T11:16:29.663Z,3.50
2022-08-22T11:19:15.282Z,2.90
2022-08-22T11:21:54.638Z,3.47
2022-08-22T11:24:35.416Z,3.30
2022-08-22T11:27:21.863Z,4.20
2022-08-22T11:30:18.161Z,3.35
2022-08-22T11:33:19.789Z,3.60
2022-08-22T11:35:56.996Z,3.88
2022-08-22T11:38:44.681Z,3.92
2022-08-22T11:41:34.010Z,4.38
2022-08-22T11:44:25.711Z,3.88
2022-08-22T11:46:58.127Z,3.60
2022-08-22T11:49:39.922Z,3.92
2022-08-22T11:52:27.380Z,4.30
2022-08-22T11:55:30.817Z,4.45
2022-08-22T11:58:17.925Z,4.05
2022-08-22T12:01:17.337Z,4.60
2022-08-22T12:04:09.971Z,4.68
2022-08-22T12:07:03.153Z,4.45
2022-08-22T12:09:51.637Z,4.72
2022-08-22T12:12:24.490Z,4.60
2022-08-22T12:15:08.816Z,4.32
2022-08-22T12:17:55.082Z,4.15
2022-08-22T12:20:32.936Z,4.32
2022-08-22T12:23:20.097Z,4.15
2022-08-22T12:26:11.203Z,3.83
2022-08-22T12:29:05.914Z,4.35
2022-08-22T12:32:04.601Z,3.92
2022-08-22T12:34:57.855Z,4.63
2022-08-22T12:38:21.220Z,3.38
2022-08-22T12:41:27.745Z,4.22
2022-08-22T12:44:07.046Z,3.65
2022-08-22T12:47:11.230Z,4.20
2022-08-22T12:50:07.429Z,3.72
2022-08-22T12:53:14.182Z,4.10
2022-08-22T12:56:10.263Z,3.67
2022-08-22T12:58:37.608Z,4.32
2022-08-22T13:01:08.788Z,4.05
2022-08-22T13:03:43.766Z,3.72
2022-08-22T13:06:35.536Z,3.92
2022-08-22T13:09:32.048Z,3.53
2022-08-22T13:12:05.162Z,3.90
2022-08-22T13:14:34.437Z,3.65
2022-08-22T13:17:15.181Z,3.42
2022-08-22T13:19:57.593Z,3.58
2022-08-22T13:22:28.992Z,4.03
2022-08-22T13:25:05.872Z,3.53
2022-08-22T13:27:51.373Z,3.42
2022-08-22T13:30:39.897Z,3.28
2022-08-22T13:33:10.334Z,3.33
2022-08-22T13:35:52.197Z,3.45
2022-08-22T13:38:32.251Z,3.75
2022-08-22T13:41:02.651Z,3.45
2022-08-22T13:43:37.185Z,3.45
2022-08-22T13:46:10.950Z,3.08
2022-08-22T13:48:51.118Z,2.95
2022-08-22T13:51:33.734Z,3.28
2022-08-22T13:54:15.950Z,3.17
2022-08-22T13:57:00.602Z,3.20
2022-08-22T13:59:59.481Z,3.22
2022-08-22T14:02:53.751Z,3.03
2022-08-22T14:05:28.649Z,3.20
2022-08-22T14:07:58.327Z,3.55
2022-08-22T14:10:33.928Z,3.40
2022-08-22T14:13:00.887Z,3.35
2022-08-22T14:15:44.749Z,3.10
2022-08-22T14:18:45.450Z,3.25
2022-08-22T14:21:25.167Z,3.10
2022-08-22T14:23:55.602Z,2.90
2022-08-22T14:26:32.835Z,3.13
2022-08-22T14:31:29.959Z,2.72
2022-08-22T14:34:10.370Z,3.22
2022-08-22T14:37:01.814Z,3.28
2022-08-22T14:39:47.326Z,3.30
2022-08-22T14:42:27.222Z,3.03
2022-08-22T14:45:21.811Z,3.53
2022-08-22T14:48:31.708Z,3.58
2022-08-22T14:51:18.390Z,3.00
2022-08-22T14:53:50.227Z,3.03
2022-08-22T14:56:27.780Z,3.78
2022-08-22T14:59:03.266Z,3.58
2022-08-22T15:01:33.250Z,3.47
2022-08-22T15:04:03.203Z,3.90
2022-08-22T15:06:31.946Z,4.95
2022-08-22T15:09:00.614Z,3.92
2022-08-22T15:11:36.748Z,3.15
2022-08-22T15:14:12.821Z,3.33
2022-08-22T15:16:45.097Z,3.47
2022-08-22T15:19:32.727Z,3.67
2022-08-22T15:22:13.860Z,3.13
2022-08-22T15:24:45.355Z,3.70
2022-08-22T15:27:19.332Z,3.20
2022-08-22T15:29:58.882Z,3.47
2022-08-22T15:32:29.655Z,3.30
2022-08-22T15:35:07.782Z,3.40
2022-08-22T15:38:18.193Z,3.33
2022-08-22T15:40:46.011Z,5.38
2022-08-22T15:43:34.828Z,3.42
2022-08-22T15:46:23.440Z,3.15
2022-08-22T15:49:02.078Z,3.45
2022-08-22T15:51:40.178Z,4.40
2022-08-22T15:54:24.603Z,4.13
2022-08-22T15:56:52.424Z,3.95
2022-08-22T15:59:26.753Z,3.88
2022-08-22T16:02:27.075Z,3.70
2022-08-22T16:05:37.273Z,4.18
2022-08-22T16:08:09.473Z,3.35
2022-08-22T16:11:02.945Z,3.53
2022-08-22T16:13:30.167Z,3.10
2022-08-22T16:16:17.747Z,3.90
2022-08-22T16:18:47.474Z,4.25
2022-08-22T16:21:40.444Z,3.83
2022-08-22T16:24:07.402Z,4.20
2022-08-22T16:26:39.935Z,3.95
2022-08-22T16:31:47.929Z,3.85
2022-08-22T16:37:04.136Z,4.28
2022-08-22T16:39:36.667Z,3.60
2022-08-22T16:42:24.468Z,3.63
2022-08-22T16:45:06.177Z,4.13
2022-08-22T16:47:33.081Z,3.85
2022-08-22T16:50:23.834Z,4.28
2022-08-22T16:53:28.964Z,4.25
2022-08-22T16:56:17.627Z,4.30
2022-08-22T16:59:03.372Z,4.50
2022-08-22T17:01:50.790Z,4.95
2022-08-22T17:04:36.350Z,4.43
2022-08-22T17:07:18.388Z,4.38
2022-08-22T17:10:18.254Z,4.20
2022-08-22T17:13:22.562Z,4.70
2022-08-22T17:16:03.589Z,4.55
2022-08-22T17:18:40.400Z,4.15
2022-08-22T17:21:32.662Z,4.38
2022-08-22T17:24:32.251Z,4.57
2022-08-22T17:27:03.990Z,4.07
2022-08-22T17:29:39.392Z,4.53
2022-08-22T17:32:25.115Z,4.80
2022-08-22T17:34:57.071Z,5.05
2022-08-22T17:37:57.078Z,4.30
2022-08-22T17:40:53.241Z,4.38
2022-08-22T17:43:28.445Z,4.07
2022-08-22T17:46:30.200Z,4.28
2022-08-22T17:49:14.560Z,4.43
2022-08-22T17:51:47.312Z,4.53
2022-08-22T17:54:33.672Z,3.70
2022-08-22T17:57:11.310Z,3.72
2022-08-22T17:59:50.478Z,4.15
2022-08-22T18:02:22.325Z,4.85
2022-08-22T18:05:19.996Z,5.03
2022-08-22T18:08:02.658Z,4.43
2022-08-22T18:10:51.058Z,3.95
2022-08-22T18:13:45.749Z,4.68
2022-08-22T18:16:24.584Z,4.30
2022-08-22T18:19:21.364Z,4.00
2022-08-22T18:21:59.811Z,4.30
2022-08-22T18:24:39.949Z,4.47
2022-08-22T18:27:30.021Z,4.55
2022-08-22T18:30:11.265Z,4.28
2022-08-22T18:32:43.232Z,4.20
2022-08-22T18:35:49.833Z,4.47
2022-08-22T18:38:34.940Z,3.97
2022-08-22T18:41:09.413Z,3.83
2022-08-22T18:43:38.464Z,3.85
2022-08-22T18:46:31.926Z,3.38
2022-08-22T18:49:19.322Z,3.85
2022-08-22T18:52:11.939Z,4.65
2022-08-22T18:54:49.461Z,3.78
2022-08-22T18:57:54.356Z,3.80
2022-08-22T19:00:42.443Z,3.90
2022-08-22T19:03:27.138Z,4.20
2022-08-22T19:06:12.605Z,4.90
2022-08-22T19:08:42.567Z,4.50
2022-08-22T19:11:16.763Z,3.90
2022-08-22T19:13:49.512Z,3.20
2022-08-22T19:16:43.706Z,3.80
2022-08-22T19:19:17.438Z,4.20
2022-08-22T19:22:26.117Z,3.50
2022-08-22T19:25:28.335Z,3.38
2022-08-22T19:28:10.323Z,3.15
2022-08-22T19:30:51.500Z,3.85
2022-08-22T19:33:29.256Z,3.60
2022-08-22T19:36:06.718Z,3.92
2022-08-22T19:38:52.064Z,4.10
2022-08-22T19:41:41.353Z,3.88
2022-08-22T19:44:19.422Z,3.92
2022-08-22T19:47:29.482Z,4.35
2022-08-22T19:50:00.567Z,3.70
2022-08-22T19:52:51.276Z,3.67
2022-08-22T19:55:30.077Z,3.97
2022-08-22T19:58:39.482Z,4.30
2022-08-22T20:01:42.710Z,3.97
2022-08-22T20:04:28.882Z,3.97
2022-08-22T20:07:16.972Z,4.88
2022-08-22T20:10:05.758Z,3.47
2022-08-22T20:12:51.986Z,3.33
2022-08-22T20:15:24.917Z,3.25
2022-08-22T20:20:58.517Z,3.33
2022-08-22T20:23:30.801Z,3.28
2022-08-22T20:25:58.710Z,3.20
2022-08-22T20:28:47.000Z,3.03
2022-08-22T20:31:27.274Z,2.60
2022-08-22T20:34:08.556Z,2.60
2022-08-22T20:36:36.500Z,3.15
2022-08-22T20:39:10.968Z,2.70
2022-08-22T20:41:43.996Z,4.15
2022-08-22T20:44:17.166Z,3.40
2022-08-22T20:46:58.288Z,3.20
2022-08-22T20:50:00.616Z,2.75
2022-08-22T20:52:42.786Z,2.97
2022-08-22T20:55:31.607Z,3.15
2022-08-22T20:58:35.915Z,2.47
2022-08-22T21:01:06.957Z,2.90
2022-08-22T21:03:47.527Z,3.28
2022-08-22T21:06:14.478Z,2.63
2022-08-22T21:08:42.772Z,3.25
2022-08-22T21:11:34.720Z,3.13
2022-08-22T21:14:22.041Z,3.22
2022-08-22T21:16:50.252Z,3.38
2022-08-22T21:19:24.541Z,3.15
2022-08-22T21:21:51.671Z,3.92
2022-08-22T21:24:18.871Z,3.40
2022-08-22T21:26:45.718Z,2.70
2022-08-22T21:29:12.598Z,2.78
2022-08-22T21:31:48.705Z,2.78
2022-08-22T21:34:30.169Z,2.97
2022-08-22T21:37:08.816Z,2.90
2022-08-22T21:39:42.180Z,2.85
2022-08-22T21:42:13.921Z,2.72
2022-08-22T21:44:43.378Z,2.42
2022-08-22T21:47:32.661Z,3.03
2022-08-22T21:50:19.019Z,3.15
2022-08-22T21:52:54.754Z,3.33
2022-08-22T21:55:34.881Z,3.28
2022-08-22T21:58:30.980Z,3.25
2022-08-22T22:01:33.789Z,3.92
2022-08-22T22:04:00.957Z,3.78
2022-08-22T22:06:27.935Z,3.45
2022-08-22T22:08:55.336Z,3.90
2022-08-22T22:11:22.452Z,3.45
2022-08-22T22:13:49.492Z,3.55
2022-08-22T22:16:24.807Z,3.30
2022-08-22T22:18:51.823Z,4.03
2022-08-22T22:21:19.072Z,3.78
2022-08-22T22:23:46.045Z,3.75
2022-08-22T22:26:13.844Z,3.30
2022-08-22T22:28:47.351Z,3.85
2022-08-22T22:31:16.460Z,3.88
2022-08-22T22:33:43.921Z,3.63
2022-08-22T22:36:25.426Z,3.60
2022-08-22T22:38:53.282Z,3.85
2022-08-22T22:41:25.477Z,4.18
2022-08-22T22:43:53.755Z,3.33
2022-08-22T22:46:21.354Z,3.70
2022-08-22T22:48:48.293Z,3.70
2022-08-22T22:51:15.324Z,4.32
2022-08-22T22:53:43.762Z,4.35
2022-08-22T22:56:16.077Z,4.22
2022-08-22T22:58:43.452Z,4.13
2022-08-22T23:01:15.542Z,4.30
2022-08-22T23:03:43.741Z,4.32
2022-08-22T23:06:13.456Z,3.40
2022-08-22T23:08:40.687Z,4.30
2022-08-22T23:11:21.405Z,4.07
2022-08-22T23:13:48.970Z,4.13
2022-08-22T23:16:19.166Z,3.80
2022-08-22T23:18:46.260Z,3.75
2022-08-22T23:21:31.312Z,3.85
2022-08-22T23:23:59.833Z,4.70
2022-08-22T23:26:27.556Z,4.10
2022-08-22T23:28:55.542Z,3.90
2022-08-22T23:31:35.064Z,3.92
2022-08-22T23:34:09.503Z,4.07
2022-08-22T23:36:38.292Z,3.70
2022-08-22T23:39:07.344Z,4.47
2022-08-22T23:41:34.781Z,3.90
2022-08-22T23:44:01.715Z,4.03
2022-08-22T23:46:28.794Z,3.50
2022-08-22T23:48:58.292Z,3.85
2022-08-22T23:51:26.649Z,4.15
2022-08-22T23:53:55.796Z,3.85
2022-08-22T23:56:34.783Z,4.28
2022-08-22T23:59:05.937Z,4.88
